Time;durP1;ratioP1;P1;durP2;ratioP2;P2;SDS_P1;SDS_P2;PMS_P1;PMS_P2;Temp;Humidity;BMP_temperature;BMP_pressure;BME280_temperature;BME280_humidity;BME280_pressure;Samples;Min_cycle;Max_cycle;Signal;HPM_P1;HPM_P2
2024/03/24 00:02:46;;;;;;;;;;;5.50;1.00;;;;;;5014003;28;19917;-81
2024/03/24 00:05:44;;;;;;;;;;;5.40;1.00;;;;;;5014234;28;19914;-81
2024/03/24 00:11:12;;;;;;;;;;;5.50;1.00;;;;;;5016655;28;19924;-81
2024/03/24 00:14:08;;;;;;;;;;;5.50;1.00;;;;;;5002249;28;19910;-81
2024/03/24 00:19:37;;;;;;;;;;;5.50;1.00;;;;;;5026034;28;19963;-81
2024/03/24 00:28:19;;;;;;;;;;;5.60;1.00;;;;;;5018318;28;20025;-77
2024/03/24 00:34:13;;;;;;;;;;;5.60;1.00;;;;;;5019094;28;20285;-76
2024/03/24 00:37:07;;;;;;;;;;;5.60;1.00;;;;;;5018569;28;19909;-76
2024/03/24 00:40:01;;;;;;;;;;;5.60;1.00;;;;;;5027214;28;19960;-76
2024/03/24 00:42:31;;;;;;;;;;;5.60;1.00;;;;;;5025190;28;19916;-77
2024/03/24 00:48:00;;;;;;;;;;;5.60;1.00;;;;;;5021045;28;19916;-81
2024/03/24 00:53:28;;;;;;;;;;;5.50;1.00;;;;;;5014237;28;19916;-81
2024/03/24 00:58:56;;;;;;;;;;;5.50;1.00;;;;;;5025378;28;20388;-81
2024/03/24 01:01:49;;;;;;;;;;;5.60;1.00;;;;;;5034116;28;19913;-81
2024/03/24 01:07:25;;;;;;;;;;;5.60;1.00;;;;;;5021831;28;19927;-81
2024/03/24 01:12:54;;;;;;;;;;;5.70;1.00;;;;;;5011094;28;19916;-80
2024/03/24 01:15:55;;;;;;;;;;;5.80;1.00;;;;;;5023983;28;19913;-76
2024/03/24 01:18:25;;;;;;;;;;;5.60;1.00;;;;;;4997436;28;19922;-76
2024/03/24 01:21:25;;;;;;;;;;;5.70;1.00;;;;;;5001922;28;19913;-76
2024/03/24 01:26:55;;;;;;;;;;;5.70;1.00;;;;;;4997666;28;19960;-76
2024/03/24 01:32:23;;;;;;;;;;;5.70;1.00;;;;;;5015467;28;20444;-81
2024/03/24 01:34:55;;;;;;;;;;;6.00;1.00;;;;;;5016217;28;19961;-81
2024/03/24 01:40:25;;;;;;;;;;;6.00;1.00;;;;;;5015599;28;20116;-81
2024/03/24 01:42:55;;;;;;;;;;;5.80;1.00;;;;;;5005609;28;19909;-81
2024/03/24 01:48:27;;;;;;;;;;;5.70;1.00;;;;;;5009967;28;19920;-81
2024/03/24 01:53:55;;;;;;;;;;;5.80;1.00;;;;;;5013479;28;19920;-81
2024/03/24 02:08:33;;;;;;;;;;;5.60;1.00;;;;;;5015909;28;19925;-81
2024/03/24 02:14:04;;;;;;;;;;;5.50;1.00;;;;;;5001352;28;19953;-80
2024/03/24 02:28:42;;;;;;;;;;;5.40;1.00;;;;;;5000723;28;19916;-82
2024/03/24 02:34:11;;;;;;;;;;;5.30;1.00;;;;;;5015782;28;19964;-81
2024/03/24 02:42:50;;;;;;;;;;;5.30;1.00;;;;;;5006835;28;19935;-81
2024/03/24 02:55:01;;;;;;;;;;;5.30;1.00;;;;;;5009033;28;19956;-81
2024/03/24 03:00:30;;;;;;;;;;;5.20;1.00;;;;;;5021549;28;19936;-76
2024/03/24 03:02:56;;;;;;;;;;;5.20;1.00;;;;;;5034141;28;20357;-76
2024/03/24 03:05:25;;;;;;;;;;;;;;;;;;5019370;28;19913;-77
2024/03/24 03:07:56;;;;;;;;;;;5.20;1.00;;;;;;5013683;28;19914;-77
2024/03/24 03:10:26;;;;;;;;;;;5.20;1.00;;;;;;5004251;28;19924;-76
2024/03/24 03:15:55;;;;;;;;;;;5.30;1.00;;;;;;5005936;28;20367;-77
2024/03/24 03:18:43;;;;;;;;;;;5.30;1.00;;;;;;5030393;28;20316;-76
2024/03/24 03:21:26;;;;;;;;;;;5.30;1.00;;;;;;5011284;28;19957;-75
2024/03/24 03:24:13;;;;;;;;;;;5.30;1.00;;;;;;4994498;28;19910;-76
2024/03/24 03:26:43;;;;;;;;;;;5.40;1.00;;;;;;5016739;28;20368;-76
2024/03/24 03:29:25;;;;;;;;;;;5.30;1.00;;;;;;5014816;28;19920;-77
2024/03/24 03:31:51;;;;;;;;;;;5.30;1.00;;;;;;5004712;28;19921;-76
2024/03/24 03:37:20;;;;;;;;;;;5.30;1.00;;;;;;5010455;28;19976;-76
2024/03/24 03:39:49;;;;;;;;;;;5.30;1.00;;;;;;5014467;28;20017;-76
2024/03/24 03:42:15;;;;;;;;;;;5.40;1.00;;;;;;5014141;28;19914;-76
2024/03/24 03:44:55;;;;;;;;;;;5.50;1.00;;;;;;5004747;28;19964;-80
2024/03/24 03:54:01;;;;;;;;;;;5.50;1.00;;;;;;5007803;28;19920;-81
2024/03/24 03:59:12;;;;;;;;;;;5.50;1.00;;;;;;5005036;28;19916;-81
2024/03/24 04:01:44;;;;;;;;;;;5.60;1.00;;;;;;5026158;28;19918;-76
2024/03/24 04:04:31;;;;;;;;;;;5.60;1.00;;;;;;5003486;28;20504;-76
2024/03/24 04:07:01;;;;;;;;;;;5.70;1.00;;;;;;5026897;28;19913;-76
2024/03/24 04:09:27;;;;;;;;;;;5.70;1.00;;;;;;5008853;28;19972;-76
2024/03/24 04:11:56;;;;;;;;;;;5.60;1.00;;;;;;5013886;28;19917;-76
2024/03/24 04:14:32;;;;;;;;;;;5.60;1.00;;;;;;5015093;28;20372;-76
2024/03/24 04:17:02;;;;;;;;;;;5.60;1.00;;;;;;5021951;28;19918;-76
2024/03/24 04:19:31;;;;;;;;;;;5.50;1.00;;;;;;5014146;28;20365;-76
2024/03/24 04:25:14;;;;;;;;;;;5.30;1.00;;;;;;5015963;28;19959;-77
2024/03/24 04:27:39;;;;;;;;;;;5.30;1.00;;;;;;4997726;28;20007;-76
2024/03/24 04:36:11;;;;;;;;;;;5.00;1.00;;;;;;5010472;28;19963;-81
2024/03/24 04:38:44;;;;;;;;;;;5.00;1.00;;;;;;5000271;28;19925;-81
2024/03/24 04:44:12;;;;;;;;;;;5.20;1.00;;;;;;5007452;28;19920;-82
2024/03/24 04:46:38;;;;;;;;;;;5.30;1.00;;;;;;5018335;28;19909;-76
2024/03/24 04:49:20;;;;;;;;;;;5.20;1.00;;;;;;5025932;28;19913;-76
2024/03/24 04:52:19;;;;;;;;;;;5.20;1.00;;;;;;5014296;28;19913;-77
2024/03/24 04:55:14;;;;;;;;;;;5.30;1.00;;;;;;5016274;28;19914;-76
2024/03/24 05:00:44;;;;;;;;;;;5.30;1.00;;;;;;5024210;28;19936;-76
2024/03/24 05:03:35;;;;;;;;;;;5.40;1.00;;;;;;5017631;28;19914;-77
2024/03/24 05:06:07;;;;;;;;;;;;;;;;;;5017832;28;20017;-82
2024/03/24 05:08:37;;;;;;;;;;;5.30;1.00;;;;;;5019404;28;19917;-76
2024/03/24 05:11:05;;;;;;;;;;;5.30;1.00;;;;;;5014454;28;19918;-76
2024/03/24 05:13:32;;;;;;;;;;;5.30;1.00;;;;;;5017694;28;19914;-76
2024/03/24 05:16:02;;;;;;;;;;;5.20;1.00;;;;;;5003733;28;19957;-76
2024/03/24 05:18:51;;;;;;;;;;;5.20;1.00;;;;;;5025440;28;20004;-76
2024/03/24 05:21:16;;;;;;;;;;;5.20;1.00;;;;;;5010487;28;20266;-76
2024/03/24 05:23:42;;;;;;;;;;;5.30;1.00;;;;;;5013305;28;19914;-76
2024/03/24 05:26:09;;;;;;;;;;;5.20;1.00;;;;;;5017079;28;19909;-76
2024/03/24 05:29:08;;;;;;;;;;;5.20;1.00;;;;;;5017545;28;19967;-76
2024/03/24 05:37:39;;;;;;;;;;;5.30;1.00;;;;;;5018141;28;19983;-82
2024/03/24 05:43:08;;;;;;;;;;;5.20;1.00;;;;;;5006590;28;20408;-82
2024/03/24 05:48:37;;;;;;;;;;;5.20;1.00;;;;;;5026624;28;19920;-76
2024/03/24 05:51:32;;;;;;;;;;;5.30;1.00;;;;;;5028331;28;19917;-76
2024/03/24 05:54:08;;;;;;;;;;;5.30;1.00;;;;;;5022009;28;19913;-77
2024/03/24 05:56:38;;;;;;;;;;;5.20;1.00;;;;;;5020090;28;19913;-76
2024/03/24 05:59:31;;;;;;;;;;;5.10;1.00;;;;;;5024746;28;19917;-76
2024/03/24 06:01:57;;;;;;;;;;;5.10;1.00;;;;;;5026404;28;19967;-80
2024/03/24 06:04:23;;;;;;;;;;;5.20;1.00;;;;;;5018455;28;19918;-80
2024/03/24 06:09:54;;;;;;;;;;;5.10;1.00;;;;;;5004342;28;19932;-80
2024/03/24 06:15:55;;;;;;;;;;;5.10;1.00;;;;;;5011910;28;19919;-79
2024/03/24 06:18:21;;;;;;;;;;;5.10;1.00;;;;;;4996976;28;19921;-77
2024/03/24 06:23:53;;;;;;;;;;;5.30;1.00;;;;;;5014191;28;20422;-81
2024/03/24 06:38:32;;;;;;;;;;;5.60;1.00;;;;;;5004685;28;20392;-76
2024/03/24 06:41:02;;;;;;;;;;;5.60;1.00;;;;;;5008909;28;20003;-77
2024/03/24 06:43:56;;;;;;;;;;;5.60;1.00;;;;;;5017466;28;19913;-77
2024/03/24 06:46:22;;;;;;;;;;;5.70;1.00;;;;;;4999345;28;19949;-76
2024/03/24 06:49:08;;;;;;;;;;;5.70;1.00;;;;;;5006220;28;19910;-77
2024/03/24 06:54:36;;;;;;;;;;;5.80;1.00;;;;;;5011358;28;19920;-78
2024/03/24 06:57:26;;;;;;;;;;;5.70;1.00;;;;;;5007911;28;19913;-76
2024/03/24 07:00:02;;;;;;;;;;;5.70;1.00;;;;;;5010792;28;19917;-77
2024/03/24 07:02:38;;;;;;;;;;;5.70;1.00;;;;;;5020840;28;19913;-77
2024/03/24 07:08:08;;;;;;;;;;;5.90;1.00;;;;;;5011578;28;19921;-76
2024/03/24 07:13:50;;;;;;;;;;;6.10;1.00;;;;;;5010209;28;19936;-77
2024/03/24 07:16:32;;;;;;;;;;;6.20;1.00;;;;;;5004454;28;20012;-77
2024/03/24 07:22:00;;;;;;;;;;;6.40;1.00;;;;;;5017391;28;19963;-81
2024/03/24 07:24:26;;;;;;;;;;;6.50;1.00;;;;;;5013534;28;19914;-80
2024/03/24 07:26:56;;;;;;;;;;;6.70;1.00;;;;;;5013474;28;19913;-80
2024/03/24 07:32:25;;;;;;;;;;;6.90;1.00;;;;;;4999402;28;19916;-77
2024/03/24 07:35:13;;;;;;;;;;;6.80;1.00;;;;;;5014358;28;19993;-77
2024/03/24 07:37:56;;;;;;;;;;;6.80;1.00;;;;;;5018160;28;19918;-83
2024/03/24 07:40:22;;;;;;;;;;;6.80;1.00;;;;;;5022411;28;19920;-76
2024/03/24 07:43:20;;;;;;;;;;;6.70;1.00;;;;;;5015486;28;19995;-79
2024/03/24 07:48:49;;;;;;;;;;;6.80;1.00;;;;;;5006376;28;20028;-80
2024/03/24 07:51:43;;;;;;;;;;;6.80;1.00;;;;;;4995123;28;19922;-81
2024/03/24 07:54:09;;;;;;;;;;;6.70;1.00;;;;;;4994800;28;19913;-81
2024/03/24 08:02:50;;;;;;;;;;;6.70;1.00;;;;;;5016995;28;19920;-83
2024/03/24 08:05:44;;;;;;;;;;;6.70;1.00;;;;;;5016860;28;19975;-83
2024/03/24 08:14:12;;;;;;;;;;;6.60;1.00;;;;;;5033450;28;19932;-81
2024/03/24 08:19:40;;;;;;;;;;;6.50;1.00;;;;;;5005113;28;19995;-81
2024/03/24 08:22:43;;;;;;;;;;;6.60;1.00;;;;;;5012826;28;19910;-80
2024/03/24 08:25:43;;;;;;;;;;;6.60;1.00;;;;;;5001948;28;19921;-81
2024/03/24 08:28:40;;;;;;;;;;;6.60;1.00;;;;;;5020804;28;19913;-82
2024/03/24 08:34:08;;;;;;;;;;;6.60;1.00;;;;;;4994530;28;19921;-78
2024/03/24 08:39:56;;;;;;;;;;;6.80;1.00;;;;;;5011544;28;19936;-79
2024/03/24 08:48:27;;;;;;;;;;;7.00;1.00;;;;;;5031118;28;20027;-78
2024/03/24 08:51:02;;;;;;;;;;;7.00;1.00;;;;;;5029636;28;20392;-78
2024/03/24 08:53:44;;;;;;;;;;;7.00;1.00;;;;;;5024069;28;19920;-78
2024/03/24 08:56:43;;;;;;;;;;;7.10;1.00;;;;;;5017389;28;19913;-78
2024/03/24 08:59:44;;;;;;;;;;;7.20;1.00;;;;;;5004427;28;19914;-78
2024/03/24 09:02:20;;;;;;;;;;;7.10;1.00;;;;;;5012356;28;19971;-78
2024/03/24 09:05:08;;;;;;;;;;;7.10;1.00;;;;;;5031738;28;20377;-80
2024/03/24 09:10:37;;;;;;;;;;;7.00;1.00;;;;;;5003654;28;19929;-80
2024/03/24 09:16:06;;;;;;;;;;;7.20;1.00;;;;;;5003236;28;19920;-79
2024/03/24 09:25:14;;;;;;;;;;;7.70;1.00;;;;;;5008158;28;19916;-79
2024/03/24 09:31:14;;;;;;;;;;;7.80;1.00;;;;;;5004653;28;19937;-79
2024/03/24 09:33:39;;;;;;;;;;;7.80;1.00;;;;;;5031078;28;19917;-80
2024/03/24 09:39:07;;;;;;;;;;;7.70;1.00;;;;;;5016485;28;19956;-81
2024/03/24 09:48:14;;;;;;;;;;;8.00;1.00;;;;;;5003259;28;19964;-79
2024/03/24 09:50:40;;;;;;;;;;;8.10;1.00;;;;;;5027625;28;20008;-79
2024/03/24 09:56:14;;;;;;;;;;;8.10;1.00;;;;;;5016598;28;20017;-80
2024/03/24 09:58:58;;;;;;;;;;;8.20;1.00;;;;;;5014351;28;19924;-80
2024/03/24 10:13:42;;;;;;;;;;;8.10;1.00;;;;;;5009126;28;19924;-80
2024/03/24 10:16:44;;;;;;;;;;;8.00;1.00;;;;;;5004500;28;20373;-79
2024/03/24 10:19:10;;;;;;;;;;;8.10;1.00;;;;;;5013864;28;19921;-80
2024/03/24 10:24:42;;;;;;;;;;;8.20;1.00;;;;;;5006755;28;19968;-80
2024/03/24 10:27:08;;;;;;;;;;;8.20;1.00;;;;;;5009193;28;19910;-80
2024/03/24 10:29:44;;;;;;;;;;;8.20;1.00;;;;;;4995696;28;19957;-79
2024/03/24 10:32:44;;;;;;;;;;;8.20;1.00;;;;;;5009136;28;19921;-80
2024/03/24 10:35:44;;;;;;;;;;;8.10;1.00;;;;;;5011117;28;19917;-78
2024/03/24 10:41:44;;;;;;;;;;;8.10;1.00;;;;;;5008910;28;19956;-78
2024/03/24 10:44:14;;;;;;;;;;;7.70;1.00;;;;;;5008358;28;19917;-78
2024/03/24 10:46:40;;;;;;;;;;;7.50;1.00;;;;;;5009383;28;20329;-78
2024/03/24 10:49:17;;;;;;;;;;;7.10;1.00;;;;;;5008959;28;19916;-78
2024/03/24 10:51:44;;;;;;;;;;;7.10;1.00;;;;;;5003794;28;19920;-80
2024/03/24 10:54:44;;;;;;;;;;;7.20;1.00;;;;;;5000156;28;20016;-80
2024/03/24 10:57:44;;;;;;;;;;;7.20;1.00;;;;;;5015432;28;19917;-79
2024/03/24 11:00:14;;;;;;;;;;;;;;;;;;5014678;28;19913;-80
2024/03/24 11:02:44;;;;;;;;;;;;;;;;;;5007153;28;19917;-81
2024/03/24 11:08:13;;;;;;;;;;;8.70;1.00;;;;;;5001283;28;19917;-79
2024/03/24 11:11:01;;;;;;;;;;;8.80;1.00;;;;;;5007137;28;19918;-79
2024/03/24 11:13:28;;;;;;;;;;;9.20;1.00;;;;;;4995858;28;19914;-82
2024/03/24 11:15:53;;;;;;;;;;;9.20;1.00;;;;;;5028655;28;20051;-85
2024/03/24 11:24:28;;;;;;;;;;;9.30;1.00;;;;;;5014887;28;19916;-86
2024/03/24 11:29:56;;;;;;;;;;;8.90;1.00;;;;;;4995590;28;19968;-82
2024/03/24 11:41:33;;;;;;;;;;;9.40;1.00;;;;;;4986071;28;20002;-83
2024/03/24 11:47:02;;;;;;;;;;;8.60;1.00;;;;;;5013652;28;19921;-81
2024/03/24 11:49:56;;;;;;;;;;;8.50;1.00;;;;;;5013691;28;19916;-79
2024/03/24 11:52:38;;;;;;;;;;;8.60;1.00;;;;;;5011639;28;19909;-80
2024/03/24 11:55:08;;;;;;;;;;;8.90;1.00;;;;;;5012569;28;20369;-82
2024/03/24 11:57:38;;;;;;;;;;;9.00;1.00;;;;;;5013478;28;19909;-82
2024/03/24 12:00:10;;;;;;;;;;;9.40;1.00;;;;;;5013018;28;19996;-82
2024/03/24 12:05:38;;;;;;;;;;;9.60;1.00;;;;;;5013271;28;19917;-81
2024/03/24 12:14:10;;;;;;;;;;;9.80;1.00;;;;;;5015781;28;19966;-81
2024/03/24 12:16:38;;;;;;;;;;;9.70;1.00;;;;;;5017946;28;20292;-78
2024/03/24 12:19:20;;;;;;;;;;;9.70;1.00;;;;;;5017877;28;19910;-79
2024/03/24 12:21:50;;;;;;;;;;;9.80;1.00;;;;;;5015818;28;19914;-77
2024/03/24 12:24:20;;;;;;;;;;;9.60;1.00;;;;;;5017969;28;19917;-77
2024/03/24 12:26:52;;;;;;;;;;;9.60;1.00;;;;;;5012885;28;19952;-76
2024/03/24 12:29:18;;;;;;;;;;;9.60;1.00;;;;;;5024344;28;19949;-76
2024/03/24 12:31:49;;;;;;;;;;;9.30;1.00;;;;;;5013518;28;19960;-76
2024/03/24 12:34:21;;;;;;;;;;;9.20;1.00;;;;;;5017267;28;19910;-75
2024/03/24 12:36:46;;;;;;;;;;;9.20;1.00;;;;;;5015011;28;20012;-77
2024/03/24 12:42:16;;;;;;;;;;;8.80;1.00;;;;;;5007577;28;20719;-76
2024/03/24 12:44:50;;;;;;;;;;;8.80;1.00;;;;;;5019008;28;19909;-76
2024/03/24 12:50:26;;;;;;;;;;;8.90;1.00;;;;;;5010192;28;19920;-77
2024/03/24 12:56:02;;;;;;;;;;;9.20;1.00;;;;;;5004154;28;19921;-79
2024/03/24 13:01:30;;;;;;;;;;;9.50;1.00;;;;;;5017477;28;19920;-79
2024/03/24 13:03:56;;;;;;;;;;;9.80;1.00;;;;;;5014060;28;20281;-77
2024/03/24 13:06:44;;;;;;;;;;;9.90;1.00;;;;;;5028022;28;19909;-79
2024/03/24 13:09:22;;;;;;;;;;;10.10;1.00;;;;;;5017219;28;20435;-76
2024/03/24 13:14:56;;;;;;;;;;;9.80;1.00;;;;;;5003863;28;19983;-77
2024/03/24 13:20:26;;;;;;;;;;;9.20;1.00;;;;;;5013209;28;20281;-81
2024/03/24 13:25:56;;;;;;;;;;;9.00;1.00;;;;;;5018551;28;19922;-76
2024/03/24 13:28:26;;;;;;;;;;;8.90;1.00;;;;;;5011625;28;19941;-77
2024/03/24 13:34:10;;;;;;;;;;;9.30;1.00;;;;;;5008301;28;20006;-77
2024/03/24 13:36:56;;;;;;;;;;;9.40;1.00;;;;;;5006226;28;20284;-78
2024/03/24 13:42:28;;;;;;;;;;;9.70;1.00;;;;;;5014102;28;19920;-77
2024/03/24 13:44:56;;;;;;;;;;;9.70;1.00;;;;;;5026957;28;19914;-78
2024/03/24 13:47:45;;;;;;;;;;;9.80;1.00;;;;;;5015534;28;19913;-77
2024/03/24 13:50:38;;;;;;;;;;;10.10;1.00;;;;;;5008651;28;19920;-77
2024/03/24 13:53:26;;;;;;;;;;;10.30;1.00;;;;;;5006326;28;19967;-80
2024/03/24 13:55:56;;;;;;;;;;;10.20;1.00;;;;;;5022424;28;19960;-77
2024/03/24 13:58:33;;;;;;;;;;;10.50;1.00;;;;;;5023000;28;19992;-76
2024/03/24 14:01:27;;;;;;;;;;;10.80;1.00;;;;;;5004249;28;19964;-78
2024/03/24 14:07:17;;;;;;;;;;;10.70;1.00;;;;;;5012260;28;19928;-80
2024/03/24 14:09:47;;;;;;;;;;;10.40;1.00;;;;;;5022904;28;20404;-76
2024/03/24 14:12:50;;;;;;;;;;;10.30;1.00;;;;;;5023723;28;20342;-76
2024/03/24 14:15:46;;;;;;;;;;;9.90;1.00;;;;;;5014353;28;19921;-77
2024/03/24 14:18:26;;;;;;;;;;;9.70;1.00;;;;;;5004201;28;20448;-73
2024/03/24 14:20:56;;;;;;;;;;;9.70;1.00;;;;;;5012308;28;19997;-73
2024/03/24 14:23:46;;;;;;;;;;;9.70;1.00;;;;;;5007748;28;19913;-75
2024/03/24 14:26:32;;;;;;;;;;;9.60;1.00;;;;;;5001975;28;20258;-77
2024/03/24 14:32:02;;;;;;;;;;;9.50;1.00;;;;;;5003591;28;20411;-77
2024/03/24 14:37:49;;;;;;;;;;;9.40;1.00;;;;;;5015316;28;19920;-79
2024/03/24 14:43:40;;;;;;;;;;;8.90;1.00;;;;;;5012708;28;20395;-81
2024/03/24 14:46:08;;;;;;;;;;;8.70;1.00;;;;;;5000211;28;19920;-79
2024/03/24 14:48:36;;;;;;;;;;;8.70;1.00;;;;;;5013356;28;19930;-77
2024/03/24 14:51:01;;;;;;;;;;;9.00;1.00;;;;;;5013535;28;20384;-77
2024/03/24 14:53:27;;;;;;;;;;;9.00;1.00;;;;;;5007804;28;19910;-78
2024/03/24 14:56:08;;;;;;;;;;;9.20;1.00;;;;;;5010248;28;19910;-79
2024/03/24 14:58:38;;;;;;;;;;;9.20;1.00;;;;;;5011196;28;19917;-75
2024/03/24 15:01:08;;;;;;;;;;;9.20;1.00;;;;;;5014631;28;19964;-78
2024/03/24 15:06:51;;;;;;;;;;;9.50;1.00;;;;;;5014508;28;20000;-78
2024/03/24 15:12:19;;;;;;;;;;;9.80;1.00;;;;;;4995674;28;19984;-76
2024/03/24 15:14:44;;;;;;;;;;;9.70;1.00;;;;;;4999684;28;20357;-76
2024/03/24 15:17:20;;;;;;;;;;;9.40;1.00;;;;;;5014778;28;19968;-76
2024/03/24 15:20:11;;;;;;;;;;;9.40;1.00;;;;;;5021770;28;19913;-76
2024/03/24 15:22:44;;;;;;;;;;;9.20;1.00;;;;;;5011296;28;20210;-78
2024/03/24 15:25:44;;;;;;;;;;;8.80;1.00;;;;;;5025306;28;19923;-77
2024/03/24 15:28:26;;;;;;;;;;;8.40;1.00;;;;;;5016457;28;19923;-78
2024/03/24 15:43:11;;;;;;;;;;;8.00;1.00;;;;;;5016517;28;19921;-78
2024/03/24 15:48:39;;;;;;;;;;;7.90;1.00;;;;;;5021231;28;19924;-77
2024/03/24 15:51:08;;;;;;;;;;;7.60;1.00;;;;;;5014250;28;20288;-77
2024/03/24 15:53:38;;;;;;;;;;;7.50;1.00;;;;;;5009532;28;19916;-77
2024/03/24 15:59:32;;;;;;;;;;;7.50;1.00;;;;;;5018356;28;19920;-74
2024/03/24 16:02:32;;;;;;;;;;;7.80;1.00;;;;;;5015920;28;20365;-74
2024/03/24 16:05:08;;;;;;;;;;;7.90;1.00;;;;;;4994946;28;19917;-75
2024/03/24 16:07:34;;;;;;;;;;;8.10;1.00;;;;;;4997983;28;19910;-74
2024/03/24 16:10:06;;;;;;;;;;;8.10;1.00;;;;;;5019637;28;19922;-77
2024/03/24 16:15:35;;;;;;;;;;;8.20;1.00;;;;;;5014573;28;19972;-76
2024/03/24 16:18:00;;;;;;;;;;;9.20;1.00;;;;;;5029835;28;19917;-77
2024/03/24 16:20:32;;;;;;;;;;;9.70;1.00;;;;;;5014201;28;20401;-75
2024/03/24 16:23:01;;;;;;;;;;;10.60;1.00;;;;;;5014867;28;19916;-75
2024/03/24 16:25:32;;;;;;;;;;;10.80;1.00;;;;;;5033036;28;20000;-75
2024/03/24 16:28:32;;;;;;;;;;;11.00;1.00;;;;;;5032898;28;19916;-76
2024/03/24 16:31:02;;;;;;;;;;;10.50;1.00;;;;;;5003819;28;19957;-75
2024/03/24 16:33:33;;;;;;;;;;;10.20;1.00;;;;;;5013273;28;19996;-75
2024/03/24 16:35:59;;;;;;;;;;;10.10;1.00;;;;;;5013748;28;20357;-73
2024/03/24 16:38:24;;;;;;;;;;;9.80;1.00;;;;;;5014077;28;20004;-74
2024/03/24 16:40:51;;;;;;;;;;;9.80;1.00;;;;;;5018720;28;20004;-74
2024/03/24 16:43:26;;;;;;;;;;;10.20;1.00;;;;;;5014145;28;19910;-75
2024/03/24 16:45:56;;;;;;;;;;;11.90;1.00;;;;;;5013948;28;19913;-75
2024/03/24 16:48:26;;;;;;;;;;;11.90;1.00;;;;;;5014368;28;19917;-75
2024/03/24 16:51:02;;;;;;;;;;;11.40;1.00;;;;;;5013963;28;19924;-75
2024/03/24 16:53:50;;;;;;;;;;;11.40;1.00;;;;;;5014126;28;19967;-75
2024/03/24 16:56:38;;;;;;;;;;;11.00;1.00;;;;;;5014490;28;19971;-78
2024/03/24 16:59:08;;;;;;;;;;;10.50;1.00;;;;;;5023845;28;19914;-78
2024/03/24 17:01:50;;;;;;;;;;;10.50;1.00;;;;;;5019474;28;19913;-79
2024/03/24 17:04:17;;;;;;;;;;;10.20;1.00;;;;;;5023378;28;19976;-78
2024/03/24 17:06:44;;;;;;;;;;;10.10;1.00;;;;;;5025479;28;19914;-78
2024/03/24 17:09:11;;;;;;;;;;;9.20;1.00;;;;;;4998246;28;19914;-75
2024/03/24 17:11:39;;;;;;;;;;;9.10;1.00;;;;;;5016697;28;20319;-75
2024/03/24 17:14:05;;;;;;;;;;;9.00;1.00;;;;;;5017942;28;19923;-78
2024/03/24 17:16:33;;;;;;;;;;;8.90;1.00;;;;;;5017642;28;20002;-74
2024/03/24 17:19:07;;;;;;;;;;;8.90;1.00;;;;;;5016330;28;20369;-75
2024/03/24 17:21:38;;;;;;;;;;;8.90;1.00;;;;;;5017030;28;19914;-75
2024/03/24 17:24:04;;;;;;;;;;;8.80;1.00;;;;;;5017095;28;20270;-74
2024/03/24 17:26:33;;;;;;;;;;;8.60;1.00;;;;;;5023783;28;20020;-78
2024/03/24 17:29:14;;;;;;;;;;;8.60;1.00;;;;;;5023873;28;19914;-77
2024/03/24 17:31:40;;;;;;;;;;;8.40;1.00;;;;;;4999276;28;19917;-79
2024/03/24 17:37:08;;;;;;;;;;;8.40;1.00;;;;;;5018511;28;20427;-77
2024/03/24 17:40:11;;;;;;;;;;;8.30;1.00;;;;;;5017610;28;19914;-78
2024/03/24 17:42:38;;;;;;;;;;;8.30;1.00;;;;;;5006912;28;19914;-75
2024/03/24 17:45:04;;;;;;;;;;;8.20;1.00;;;;;;5012154;28;19917;-76
2024/03/24 17:47:45;;;;;;;;;;;8.10;1.00;;;;;;5028695;28;20379;-76
2024/03/24 17:50:21;;;;;;;;;;;8.10;1.00;;;;;;5023965;28;19921;-76
2024/03/24 17:52:50;;;;;;;;;;;8.20;1.00;;;;;;5014586;28;19980;-75
2024/03/24 17:55:16;;;;;;;;;;;8.20;1.00;;;;;;5018195;28;19913;-75
2024/03/24 17:57:44;;;;;;;;;;;8.20;1.00;;;;;;5014331;28;19936;-77
2024/03/24 18:00:20;;;;;;;;;;;8.30;1.00;;;;;;5016548;28;19928;-75
2024/03/24 18:12:02;;;;;;;;;;;8.40;1.00;;;;;;5014026;28;19921;-79
2024/03/24 18:14:28;;;;;;;;;;;8.30;1.00;;;;;;4996565;28;19925;-80
2024/03/24 18:16:53;;;;;;;;;;;8.30;1.00;;;;;;5006460;28;19917;-79
2024/03/24 18:19:19;;;;;;;;;;;8.30;1.00;;;;;;5035724;28;20079;-78
2024/03/24 18:25:21;;;;;;;;;;;8.20;1.00;;;;;;5021596;28;19920;-79
2024/03/24 18:28:04;;;;;;;;;;;8.20;1.00;;;;;;5020523;28;19928;-81
2024/03/24 18:30:38;;;;;;;;;;;8.30;1.00;;;;;;4996755;28;20301;-77
2024/03/24 18:33:06;;;;;;;;;;;8.20;1.00;;;;;;5004007;28;19915;-77
2024/03/24 18:36:02;;;;;;;;;;;8.30;1.00;;;;;;5018687;28;19913;-79
2024/03/24 18:42:08;;;;;;;;;;;8.30;1.00;;;;;;5015753;28;20288;-79
2024/03/24 18:48:08;;;;;;;;;;;8.30;1.00;;;;;;5015289;28;19916;-79
2024/03/24 18:53:38;;;;;;;;;;;8.20;1.00;;;;;;5034890;28;20047;-79
2024/03/24 19:05:14;;;;;;;;;;;8.20;1.00;;;;;;5034412;28;19920;-80
2024/03/24 19:07:44;;;;;;;;;;;8.20;1.00;;;;;;5017334;28;19925;-77
2024/03/24 19:10:14;;;;;;;;;;;8.20;1.00;;;;;;5028833;28;19921;-78
2024/03/24 19:12:56;;;;;;;;;;;8.10;1.00;;;;;;5020256;28;19917;-78
2024/03/24 19:15:22;;;;;;;;;;;8.20;1.00;;;;;;5001765;28;19927;-76
2024/03/24 19:17:49;;;;;;;;;;;8.10;1.00;;;;;;5014488;28;20008;-78
2024/03/24 19:20:15;;;;;;;;;;;8.10;1.00;;;;;;5018143;28;19975;-77
2024/03/24 19:22:44;;;;;;;;;;;8.10;1.00;;;;;;5015008;28;19916;-78
2024/03/24 19:25:10;;;;;;;;;;;8.10;1.00;;;;;;5010372;28;19918;-78
2024/03/24 19:27:44;;;;;;;;;;;8.10;1.00;;;;;;5010447;28;19960;-78
2024/03/24 19:30:16;;;;;;;;;;;8.10;1.00;;;;;;5019990;28;19971;-78
2024/03/24 19:32:50;;;;;;;;;;;8.10;1.00;;;;;;5009343;28;19914;-77
2024/03/24 19:35:20;;;;;;;;;;;8.10;1.00;;;;;;5018835;28;20003;-77
2024/03/24 19:38:09;;;;;;;;;;;8.20;1.00;;;;;;5009411;28;19913;-77
2024/03/24 19:40:44;;;;;;;;;;;8.20;1.00;;;;;;5034488;28;19959;-78
2024/03/24 19:43:10;;;;;;;;;;;8.20;1.00;;;;;;5023086;28;20003;-76
2024/03/24 19:45:45;;;;;;;;;;;8.30;1.00;;;;;;5015095;28;19913;-75
2024/03/24 19:51:14;;;;;;;;;;;8.20;1.00;;;;;;5021697;28;20388;-76
2024/03/24 19:53:44;;;;;;;;;;;8.10;1.00;;;;;;5029661;28;19921;-76
2024/03/24 19:56:14;;;;;;;;;;;8.20;1.00;;;;;;5022061;28;20276;-76
2024/03/24 19:58:44;;;;;;;;;;;8.20;1.00;;;;;;5024242;28;19914;-76
2024/03/24 20:01:14;;;;;;;;;;;8.20;1.00;;;;;;5020473;28;20008;-76
2024/03/24 20:03:44;;;;;;;;;;;8.20;1.00;;;;;;5007882;28;19917;-77
2024/03/24 20:06:14;;;;;;;;;;;;;;;;;;5017747;28;19924;-77
2024/03/24 20:09:14;;;;;;;;;;;8.40;1.00;;;;;;5032702;28;19917;-76
2024/03/24 20:11:44;;;;;;;;;;;8.30;1.00;;;;;;5008540;28;19919;-76
2024/03/24 20:14:10;;;;;;;;;;;8.20;1.00;;;;;;5004845;28;19917;-78
2024/03/24 20:16:38;;;;;;;;;;;8.10;1.00;;;;;;5027871;28;19924;-77
2024/03/24 20:19:04;;;;;;;;;;;8.20;1.00;;;;;;5021660;28;20451;-77
2024/03/24 20:21:44;;;;;;;;;;;8.30;1.00;;;;;;5014390;28;19917;-77
2024/03/24 20:24:20;;;;;;;;;;;8.30;1.00;;;;;;5001270;28;19913;-77
2024/03/24 20:26:51;;;;;;;;;;;8.30;1.00;;;;;;5014513;28;19910;-76
2024/03/24 20:29:22;;;;;;;;;;;8.20;1.00;;;;;;5010421;28;20045;-76
2024/03/24 20:32:08;;;;;;;;;;;8.20;1.00;;;;;;5011991;28;19917;-76
2024/03/24 20:34:34;;;;;;;;;;;8.20;1.00;;;;;;4998333;28;19910;-76
2024/03/24 20:37:08;;;;;;;;;;;8.30;1.00;;;;;;5005764;28;19967;-76
2024/03/24 20:39:40;;;;;;;;;;;8.30;1.00;;;;;;5021825;28;19913;-76
2024/03/24 20:45:08;;;;;;;;;;;8.30;1.00;;;;;;5005228;28;19916;-76
2024/03/24 20:50:44;;;;;;;;;;;8.30;1.00;;;;;;5016052;28;19923;-77
2024/03/24 20:53:14;;;;;;;;;;;8.30;1.00;;;;;;5034164;28;19921;-76
2024/03/24 20:55:50;;;;;;;;;;;8.30;1.00;;;;;;5029201;28;19918;-76
2024/03/24 20:58:20;;;;;;;;;;;8.30;1.00;;;;;;5018014;28;20254;-76
2024/03/24 21:01:14;;;;;;;;;;;8.20;1.00;;;;;;5009554;28;19910;-76
2024/03/24 21:03:57;;;;;;;;;;;8.20;1.00;;;;;;4998136;28;19914;-76
2024/03/24 21:09:38;;;;;;;;;;;8.20;1.00;;;;;;5019381;28;19928;-76
2024/03/24 21:12:14;;;;;;;;;;;8.20;1.00;;;;;;5018949;28;19917;-76
2024/03/24 21:14:40;;;;;;;;;;;8.20;1.00;;;;;;4998042;28;19914;-77
2024/03/24 21:17:08;;;;;;;;;;;8.30;1.00;;;;;;4999999;28;19964;-78
2024/03/24 21:23:09;;;;;;;;;;;8.20;1.00;;;;;;5005159;28;20009;-78
2024/03/24 21:28:44;;;;;;;;;;;8.10;1.00;;;;;;5001196;28;20428;-77
2024/03/24 21:31:14;;;;;;;;;;;8.10;1.00;;;;;;5017248;28;19922;-76
2024/03/24 21:34:02;;;;;;;;;;;8.20;1.00;;;;;;5012522;28;20519;-75
2024/03/24 21:42:50;;;;;;;;;;;8.20;1.00;;;;;;5024426;28;19920;-76
2024/03/24 21:45:32;;;;;;;;;;;8.20;1.00;;;;;;5023305;28;19910;-76
2024/03/24 21:47:59;;;;;;;;;;;8.20;1.00;;;;;;5016938;28;19916;-76
2024/03/24 21:50:44;;;;;;;;;;;8.10;1.00;;;;;;5006311;28;19984;-76
2024/03/24 21:53:15;;;;;;;;;;;8.20;1.00;;;;;;5003896;28;19913;-76
2024/03/24 21:55:45;;;;;;;;;;;8.30;1.00;;;;;;5010922;28;19917;-76
2024/03/24 21:58:14;;;;;;;;;;;8.30;1.00;;;;;;5009402;28;20353;-78
2024/03/24 22:00:44;;;;;;;;;;;8.20;1.00;;;;;;5011457;28;19920;-78
2024/03/24 22:03:14;;;;;;;;;;;8.20;1.00;;;;;;5016771;28;19913;-78
2024/03/24 22:05:50;;;;;;;;;;;8.20;1.00;;;;;;5003572;28;19914;-77
2024/03/24 22:08:20;;;;;;;;;;;8.20;1.00;;;;;;5016477;28;19944;-78
2024/03/24 22:11:08;;;;;;;;;;;8.20;1.00;;;;;;5012422;28;20004;-77
2024/03/24 22:13:47;;;;;;;;;;;8.30;1.00;;;;;;5022990;28;19913;-81
2024/03/24 22:16:13;;;;;;;;;;;8.30;1.00;;;;;;5016122;28;20405;-77
2024/03/24 22:18:45;;;;;;;;;;;8.20;1.00;;;;;;5013794;28;19960;-77
2024/03/24 22:21:14;;;;;;;;;;;8.20;1.00;;;;;;4996706;28;19917;-78